Time;durP1;ratioP1;P1;durP2;ratioP2;P2;SDS_P1;SDS_P2;PMS_P1;PMS_P2;Temp;Humidity;BMP_temperature;BMP_pressure;BME280_temperature;BME280_humidity;BME280_pressure;Samples;Min_cycle;Max_cycle;Signal;HPM_P1;HPM_P2
2023/07/02 00:02:21;;;;;;;5.68;2.20;;;;;;;;;;7365586;19;20551;-66
2023/07/02 00:04:46;;;;;;;5.50;2.22;;;;;;;;;;7367614;19;20017;-66
2023/07/02 00:07:11;;;;;;;5.07;2.30;;;;;;;;;;7366327;19;20094;-65
2023/07/02 00:09:37;;;;;;;4.38;2.50;;;;;;;;;;7389359;19;20449;-65
2023/07/02 00:12:02;;;;;;;3.95;2.60;;;;;;;;;;7368820;19;19999;-65
2023/07/02 00:14:28;;;;;;;4.90;2.67;;;;;;;;;;7369379;19;20677;-66
2023/07/02 00:16:53;;;;;;;5.30;2.75;;;;;;;;;;7365555;19;20021;-66
2023/07/02 00:19:18;;;;;;;4.70;2.40;;;;;;;;;;7366955;19;20015;-65
2023/07/02 00:21:44;;;;;;;4.63;2.70;;;;;;;;;;7368044;19;20019;-66
2023/07/02 00:24:09;;;;;;;5.30;2.28;;;;;;;;;;7389528;19;20031;-66
2023/07/02 00:26:35;;;;;;;5.20;2.38;;;;;;;;;;7366666;19;20010;-66
2023/07/02 00:29:00;;;;;;;6.55;2.20;;;;;;;;;;7365868;19;20010;-66
2023/07/02 00:31:27;;;;;;;4.70;2.30;;;;;;;;;;7366410;19;20321;-66
2023/07/02 00:33:52;;;;;;;5.72;2.30;;;;;;;;;;7364908;19;20021;-66
2023/07/02 00:36:17;;;;;;;4.70;2.20;;;;;;;;;;7387509;19;20002;-66
2023/07/02 00:38:45;;;;;;;4.80;2.00;;;;;;;;;;7366759;19;20033;-66
2023/07/02 00:41:11;;;;;;;4.00;2.00;;;;;;;;;;7365307;19;20010;-66
2023/07/02 00:43:43;;;;;;;5.05;2.17;;;;;;;;;;7365598;19;20010;-66
2023/07/02 00:46:11;;;;;;;4.25;2.03;;;;;;;;;;7365607;19;20015;-66
2023/07/02 00:48:38;;;;;;;5.35;2.13;;;;;;;;;;7387664;19;20098;-66
2023/07/02 00:51:04;;;;;;;5.35;2.22;;;;;;;;;;7365584;19;20022;-66
2023/07/02 00:53:29;;;;;;;4.00;2.28;;;;;;;;;;7364560;19;20048;-65
2023/07/02 00:55:54;;;;;;;4.00;2.40;;;;;;;;;;7365458;19;20007;-66
2023/07/02 00:58:20;;;;;;;7.45;2.10;;;;;;;;;;7365710;19;20040;-65
2023/07/02 01:00:46;;;;;;;5.15;2.28;;;;;;;;;;7366605;19;20003;-66
2023/07/02 01:03:12;;;;;;;3.53;2.08;;;;;;;;;;7388648;19;20126;-65
2023/07/02 01:05:37;;;;;;;4.03;2.15;;;;;;;;;;7364882;19;20011;-66
2023/07/02 01:08:05;;;;;;;5.10;2.80;;;;;;;;;;7365857;19;20540;-65
2023/07/02 01:10:32;;;;;;;6.43;2.92;;;;;;;;;;7365338;19;20074;-65
2023/07/02 01:13:05;;;;;;;4.80;1.98;;;;;;;;;;7362313;19;20010;-66
2023/07/02 01:15:31;;;;;;;4.03;1.92;;;;;;;;;;7384947;19;20077;-66
2023/07/02 01:17:57;;;;;;;3.28;1.95;;;;;;;;;;7362464;19;20015;-66
2023/07/02 01:20:23;;;;;;;4.65;2.10;;;;;;;;;;7362381;19;20035;-65
2023/07/02 01:22:51;;;;;;;5.30;2.13;;;;;;;;;;7363854;19;20003;-66
2023/07/02 01:25:17;;;;;;;5.93;2.53;;;;;;;;;;7363756;19;20003;-65
2023/07/02 01:27:43;;;;;;;4.55;2.10;;;;;;;;;;7363756;19;20011;-65
2023/07/02 01:30:09;;;;;;;6.07;2.50;;;;;;;;;;7385819;19;20465;-65
2023/07/02 01:32:35;;;;;;;4.85;1.80;;;;;;;;;;7365276;19;20007;-65
2023/07/02 01:35:00;;;;;;;4.05;2.05;;;;;;;;;;7364770;19;20014;-65
2023/07/02 01:37:26;;;;;;;4.90;2.10;;;;;;;;;;7365210;19;20119;-66
2023/07/02 01:39:51;;;;;;;5.20;2.08;;;;;;;;;;7365148;19;20009;-65
2023/07/02 01:42:18;;;;;;;4.55;1.77;;;;;;;;;;7389497;19;20002;-65
2023/07/02 01:44:46;;;;;;;4.72;2.22;;;;;;;;;;7370799;19;20615;-66
2023/07/02 01:47:11;;;;;;;4.00;2.95;;;;;;;;;;7368990;19;20014;-65
2023/07/02 01:49:37;;;;;;;6.03;2.58;;;;;;;;;;7376202;19;20042;-66
2023/07/02 01:52:03;;;;;;;7.22;2.90;;;;;;;;;;7375772;19;20399;-65
2023/07/02 01:54:29;;;;;;;4.03;2.00;;;;;;;;;;7392799;19;20341;-65
2023/07/02 01:56:56;;;;;;;3.72;1.80;;;;;;;;;;7369060;19;20521;-65
2023/07/02 01:59:21;;;;;;;4.63;2.40;;;;;;;;;;7369918;19;20484;-66
2023/07/02 02:01:47;;;;;;;6.72;2.35;;;;;;;;;;7371187;19;20026;-66
2023/07/02 02:04:13;;;;;;;4.68;2.30;;;;;;;;;;7371087;19;20022;-65
2023/07/02 02:06:39;;;;;;;5.05;2.65;;;;;;;;;;7391976;19;20821;-67
2023/07/02 02:09:05;;;;;;;8.25;2.50;;;;;;;;;;7371611;19;20023;-67
2023/07/02 02:11:32;;;;;;;7.43;2.45;;;;;;;;;;7371149;19;20014;-66
2023/07/02 02:14:01;;;;;;;5.82;2.60;;;;;;;;;;7369808;19;20041;-66
2023/07/02 02:16:26;;;;;;;7.25;3.55;;;;;;;;;;7369682;19;20017;-66
2023/07/02 02:18:52;;;;;;;5.72;2.60;;;;;;;;;;7368526;19;20341;-66
2023/07/02 02:21:18;;;;;;;7.93;2.72;;;;;;;;;;7389874;19;20495;-66
2023/07/02 02:23:44;;;;;;;6.00;2.75;;;;;;;;;;7370307;19;20041;-66
2023/07/02 02:26:09;;;;;;;9.48;2.42;;;;;;;;;;7371615;19;20002;-66
2023/07/02 02:28:34;;;;;;;8.40;2.80;;;;;;;;;;7369237;19;20006;-66
2023/07/02 02:31:00;;;;;;;5.15;2.63;;;;;;;;;;7364912;19;20947;-65
2023/07/02 02:33:25;;;;;;;11.40;2.70;;;;;;;;;;7387156;19;20801;-65
2023/07/02 02:35:51;;;;;;;4.93;2.58;;;;;;;;;;7365845;19;20022;-66
2023/07/02 02:38:16;;;;;;;6.35;2.55;;;;;;;;;;7366295;19;20664;-65
2023/07/02 02:40:42;;;;;;;7.70;2.80;;;;;;;;;;7367098;19;20007;-66
2023/07/02 02:43:07;;;;;;;8.02;2.97;;;;;;;;;;7366839;19;20007;-66
2023/07/02 02:45:32;;;;;;;5.75;2.60;;;;;;;;;;7387996;19;20022;-65
2023/07/02 02:47:57;;;;;;;6.72;2.85;;;;;;;;;;7361914;19;20010;-65
2023/07/02 02:50:23;;;;;;;5.68;2.50;;;;;;;;;;7364388;19;20017;-66
2023/07/02 02:52:48;;;;;;;6.00;2.90;;;;;;;;;;7368143;19;20007;-65
2023/07/02 02:55:14;;;;;;;6.45;3.00;;;;;;;;;;7368204;19;20019;-65
2023/07/02 02:57:39;;;;;;;7.43;2.70;;;;;;;;;;7382944;19;20003;-65
2023/07/02 03:00:06;;;;;;;6.47;3.42;;;;;;;;;;7371995;19;20353;-65
2023/07/02 03:02:32;;;;;;;8.73;3.30;;;;;;;;;;7369236;19;20011;-65
2023/07/02 03:05:02;;;;;;;8.55;3.03;;;;;;;;;;7368719;19;20582;-65
2023/07/02 03:07:27;;;;;;;8.95;3.28;;;;;;;;;;7368571;19;20002;-65
2023/07/02 03:09:52;;;;;;;8.27;3.33;;;;;;;;;;7368782;19;20017;-65
2023/07/02 03:12:18;;;;;;;6.53;2.85;;;;;;;;;;7390403;19;20009;-65
2023/07/02 03:14:43;;;;;;;11.25;3.42;;;;;;;;;;7367174;19;20018;-65
2023/07/02 03:17:08;;;;;;;8.77;3.25;;;;;;;;;;7367811;19;20358;-66
2023/07/02 03:19:34;;;;;;;8.32;4.40;;;;;;;;;;7368065;19;20011;-65
2023/07/02 03:21:59;;;;;;;10.07;3.85;;;;;;;;;;7373673;19;20025;-66
2023/07/02 03:24:24;;;;;;;8.20;4.03;;;;;;;;;;7401503;19;20047;-66
2023/07/02 03:26:49;;;;;;;10.45;3.88;;;;;;;;;;7371299;19;20018;-66
2023/07/02 03:29:15;;;;;;;10.43;3.78;;;;;;;;;;7366788;19;20010;-65
2023/07/02 03:31:41;;;;;;;7.85;3.30;;;;;;;;;;7369041;19;20007;-65
2023/07/02 03:34:10;;;;;;;8.38;4.00;;;;;;;;;;7367001;19;20017;-67
2023/07/02 03:36:36;;;;;;;10.38;4.10;;;;;;;;;;7387026;19;20021;-65
2023/07/02 03:39:03;;;;;;;10.27;4.10;;;;;;;;;;7366582;19;20014;-65
2023/07/02 03:41:28;;;;;;;9.70;4.35;;;;;;;;;;7365546;19;20006;-66
2023/07/02 03:43:53;;;;;;;12.55;4.05;;;;;;;;;;7365086;19;20034;-66
2023/07/02 03:46:19;;;;;;;10.52;3.95;;;;;;;;;;7368507;19;20032;-66
2023/07/02 03:48:44;;;;;;;8.90;3.75;;;;;;;;;;7367589;19;20002;-65
2023/07/02 03:51:12;;;;;;;10.98;4.28;;;;;;;;;;7390092;19;20036;-65
2023/07/02 03:53:37;;;;;;;8.23;3.90;;;;;;;;;;7368542;19;20010;-66
2023/07/02 03:56:03;;;;;;;8.07;3.47;;;;;;;;;;7366564;19;20011;-64
2023/07/02 03:58:28;;;;;;;10.40;4.10;;;;;;;;;;7368152;19;20010;-65
2023/07/02 04:00:54;;;;;;;10.07;3.88;;;;;;;;;;7372587;19;20529;-64
2023/07/02 04:03:19;;;;;;;10.02;3.97;;;;;;;;;;7390776;19;20023;-64
2023/07/02 04:05:44;;;;;;;8.00;4.15;;;;;;;;;;7368156;19;20763;-66
2023/07/02 04:08:10;;;;;;;9.43;4.22;;;;;;;;;;7366447;19;20455;-66
2023/07/02 04:10:35;;;;;;;8.85;4.00;;;;;;;;;;7366646;19;20003;-66
2023/07/02 04:13:01;;;;;;;9.07;3.80;;;;;;;;;;7367867;19;20014;-66
2023/07/02 04:15:26;;;;;;;8.82;4.78;;;;;;;;;;7388958;19;20007;-66
2023/07/02 04:17:52;;;;;;;10.88;4.07;;;;;;;;;;7365085;19;20700;-66
2023/07/02 04:20:18;;;;;;;9.82;3.60;;;;;;;;;;7365385;19;20031;-65
2023/07/02 04:22:44;;;;;;;10.40;3.85;;;;;;;;;;7367501;19;20044;-66
2023/07/02 04:25:14;;;;;;;7.65;3.50;;;;;;;;;;7366897;19;20034;-66
2023/07/02 04:27:40;;;;;;;11.40;4.20;;;;;;;;;;7373529;19;20010;-64
2023/07/02 04:30:08;;;;;;;8.07;3.92;;;;;;;;;;7388279;19;20130;-65
2023/07/02 04:32:33;;;;;;;9.05;3.72;;;;;;;;;;7365539;19;20577;-66
2023/07/02 04:34:59;;;;;;;11.88;4.57;;;;;;;;;;7366278;19;20044;-66
2023/07/02 04:37:24;;;;;;;9.60;3.72;;;;;;;;;;7365465;19;20029;-65
2023/07/02 04:39:49;;;;;;;10.30;4.35;;;;;;;;;;7363240;19;20010;-65
2023/07/02 04:42:15;;;;;;;12.95;3.97;;;;;;;;;;7388168;19;20015;-65
2023/07/02 04:44:43;;;;;;;7.95;3.85;;;;;;;;;;7366485;19;20636;-66
2023/07/02 04:47:08;;;;;;;9.93;4.00;;;;;;;;;;7367695;19;20013;-67
2023/07/02 04:49:34;;;;;;;8.50;4.18;;;;;;;;;;7366755;19;20010;-67
2023/07/02 04:51:59;;;;;;;8.73;4.03;;;;;;;;;;7368957;19;20008;-65
2023/07/02 04:54:25;;;;;;;10.13;4.63;;;;;;;;;;7387726;19;20480;-64
2023/07/02 04:56:50;;;;;;;9.90;4.55;;;;;;;;;;7372106;19;20019;-66
2023/07/02 04:59:16;;;;;;;9.40;4.10;;;;;;;;;;7377369;19;20010;-67
2023/07/02 05:01:42;;;;;;;9.25;4.30;;;;;;;;;;7375539;19;20017;-66
2023/07/02 05:04:10;;;;;;;8.60;4.03;;;;;;;;;;7374936;19;20014;-66
2023/07/02 05:06:36;;;;;;;10.77;4.40;;;;;;;;;;7390171;19;20601;-66
2023/07/02 05:09:01;;;;;;;6.93;3.90;;;;;;;;;;7367036;19;20002;-66
2023/07/02 05:11:26;;;;;;;10.15;4.38;;;;;;;;;;7363523;19;20014;-66
2023/07/02 05:13:52;;;;;;;10.65;4.47;;;;;;;;;;7364776;19;20021;-66
2023/07/02 05:16:17;;;;;;;12.82;4.90;;;;;;;;;;7367159;19;20070;-66
2023/07/02 05:18:42;;;;;;;13.95;5.25;;;;;;;;;;7365072;19;20404;-66
2023/07/02 05:21:08;;;;;;;12.35;5.07;;;;;;;;;;7385231;19;20035;-66
2023/07/02 05:23:33;;;;;;;10.35;5.03;;;;;;;;;;7373380;19;20006;-66
2023/07/02 05:25:58;;;;;;;11.95;5.15;;;;;;;;;;7373692;19;20788;-66
2023/07/02 05:28:24;;;;;;;12.82;5.40;;;;;;;;;;7372156;19;20010;-64
2023/07/02 05:30:50;;;;;;;11.38;5.10;;;;;;;;;;7370586;19;20023;-68
2023/07/02 05:33:15;;;;;;;14.60;6.28;;;;;;;;;;7394764;19;19998;-67
2023/07/02 05:35:41;;;;;;;10.75;5.50;;;;;;;;;;7371828;19;20025;-66
2023/07/02 05:38:06;;;;;;;14.73;6.10;;;;;;;;;;7371846;19;20789;-66
2023/07/02 05:40:31;;;;;;;13.00;5.47;;;;;;;;;;7370033;19;20022;-66
2023/07/02 05:42:57;;;;;;;13.00;6.82;;;;;;;;;;7372165;19;20011;-66
2023/07/02 05:45:23;;;;;;;13.15;6.32;;;;;;;;;;7393875;19;20003;-66
2023/07/02 05:47:49;;;;;;;16.00;7.35;;;;;;;;;;7366863;19;20010;-65
2023/07/02 05:50:14;;;;;;;14.52;7.32;;;;;;;;;;7367625;19;20037;-66
2023/07/02 05:52:40;;;;;;;14.80;6.85;;;;;;;;;;7368668;19;20441;-66
2023/07/02 05:55:10;;;;;;;14.43;7.28;;;;;;;;;;7368488;19;20047;-65
2023/07/02 05:57:35;;;;;;;14.85;7.03;;;;;;;;;;7388893;19;20023;-67
2023/07/02 06:00:00;;;;;;;18.95;6.97;;;;;;;;;;7367092;19;20006;-66
2023/07/02 06:02:26;;;;;;;15.32;6.70;;;;;;;;;;7372107;19;20006;-66
2023/07/02 06:04:51;;;;;;;13.40;5.85;;;;;;;;;;7372654;19;20031;-66
2023/07/02 06:07:16;;;;;;;16.17;6.90;;;;;;;;;;7372419;19;20010;-65
2023/07/02 06:09:42;;;;;;;12.77;6.85;;;;;;;;;;7370040;19;20387;-67
2023/07/02 06:12:07;;;;;;;16.50;7.63;;;;;;;;;;7392962;19;20013;-66
2023/07/02 06:14:33;;;;;;;14.73;7.60;;;;;;;;;;7371606;19;20015;-66
2023/07/02 06:16:59;;;;;;;16.38;7.40;;;;;;;;;;7370010;19;20078;-65
2023/07/02 06:19:24;;;;;;;15.32;7.22;;;;;;;;;;7370785;19;20018;-67
2023/07/02 06:21:49;;;;;;;15.65;7.35;;;;;;;;;;7369056;19;20010;-66
2023/07/02 06:24:15;;;;;;;16.38;7.18;;;;;;;;;;7393542;19;20018;-66
2023/07/02 06:26:40;;;;;;;14.88;8.02;;;;;;;;;;7369596;19;20386;-66
2023/07/02 06:29:05;;;;;;;12.35;7.10;;;;;;;;;;7370641;19;20019;-67
2023/07/02 06:31:31;;;;;;;14.57;6.82;;;;;;;;;;7371379;19;20010;-66
2023/07/02 06:33:56;;;;;;;18.65;7.63;;;;;;;;;;7373709;19;20568;-65
2023/07/02 06:36:21;;;;;;;14.88;7.78;;;;;;;;;;7392573;19;20040;-65
2023/07/02 06:38:47;;;;;;;15.82;7.70;;;;;;;;;;7370136;19;20010;-66
2023/07/02 06:41:12;;;;;;;18.13;7.80;;;;;;;;;;7369563;19;20018;-66
2023/07/02 06:43:38;;;;;;;15.77;7.10;;;;;;;;;;7371818;19;20289;-66
2023/07/02 06:46:03;;;;;;;16.38;8.25;;;;;;;;;;7369039;19;20045;-66
2023/07/02 06:48:29;;;;;;;19.42;8.30;;;;;;;;;;7386372;19;20445;-65
2023/07/02 06:50:55;;;;;;;17.00;7.95;;;;;;;;;;7368745;19;20010;-66
2023/07/02 06:53:21;;;;;;;18.02;8.15;;;;;;;;;;7371463;19;20129;-73
2023/07/02 06:55:46;;;;;;;16.77;8.90;;;;;;;;;;7370190;19;20076;-78
2023/07/02 06:58:11;;;;;;;17.55;8.65;;;;;;;;;;7368096;19;20481;-73
2023/07/02 07:00:37;;;;;;;15.88;8.82;;;;;;;;;;7381160;19;20006;-73
2023/07/02 07:03:03;;;;;;;16.48;7.97;;;;;;;;;;7366206;19;19999;-71
2023/07/02 07:05:31;;;;;;;17.88;8.30;;;;;;;;;;7366417;19;20507;-72
2023/07/02 07:07:56;;;;;;;16.25;8.82;;;;;;;;;;7367472;19;20508;-72
2023/07/02 07:10:21;;;;;;;15.82;8.23;;;;;;;;;;7365671;19;20015;-74
2023/07/02 07:12:47;;;;;;;13.90;7.63;;;;;;;;;;7368428;19;19994;-72
2023/07/02 07:15:12;;;;;;;14.23;8.23;;;;;;;;;;7387054;19;20001;-71
2023/07/02 07:17:38;;;;;;;14.73;7.55;;;;;;;;;;7366380;19;20003;-72
2023/07/02 07:20:04;;;;;;;15.80;8.13;;;;;;;;;;7365184;19;20010;-73
2023/07/02 07:22:30;;;;;;;15.15;7.90;;;;;;;;;;7368458;19;20002;-72
2023/07/02 07:24:55;;;;;;;18.63;7.55;;;;;;;;;;7368959;19;20103;-73
2023/07/02 07:27:21;;;;;;;17.27;8.15;;;;;;;;;;7386644;19;20014;-73
2023/07/02 07:29:46;;;;;;;18.48;8.63;;;;;;;;;;7365745;19;20017;-73
2023/07/02 07:32:11;;;;;;;14.80;8.23;;;;;;;;;;7366609;19;20431;-73
2023/07/02 07:34:37;;;;;;;16.33;7.78;;;;;;;;;;7368211;19;20018;-73
2023/07/02 07:37:02;;;;;;;19.63;8.32;;;;;;;;;;7367020;19;20036;-73
2023/07/02 07:39:28;;;;;;;17.42;7.63;;;;;;;;;;7389370;19;20098;-74
2023/07/02 07:41:53;;;;;;;14.77;7.90;;;;;;;;;;7367958;19;20014;-72
2023/07/02 07:44:18;;;;;;;14.23;8.55;;;;;;;;;;7365117;19;20405;-73
2023/07/02 07:46:44;;;;;;;13.43;7.93;;;;;;;;;;7366007;19;20011;-75
2023/07/02 07:49:09;;;;;;;13.48;7.38;;;;;;;;;;7366248;19;20014;-70
2023/07/02 07:51:35;;;;;;;15.02;8.15;;;;;;;;;;7388476;19;20014;-74
2023/07/02 07:54:02;;;;;;;16.75;7.88;;;;;;;;;;7366987;19;20017;-73
2023/07/02 07:56:27;;;;;;;13.27;7.90;;;;;;;;;;7365680;19;20512;-73
2023/07/02 07:58:52;;;;;;;16.73;8.25;;;;;;;;;;7365990;19;20019;-73
2023/07/02 08:01:18;;;;;;;13.70;7.63;;;;;;;;;;7365645;19;20027;-73
2023/07/02 08:03:43;;;;;;;17.80;8.20;;;;;;;;;;7367595;19;20006;-74
2023/07/02 08:06:08;;;;;;;16.37;7.57;;;;;;;;;;7391874;19;20318;-74
2023/07/02 08:08:34;;;;;;;15.90;7.95;;;;;;;;;;7370569;19;20263;-73
2023/07/02 08:10:59;;;;;;;13.77;8.00;;;;;;;;;;7367527;19;20014;-68
2023/07/02 08:13:24;;;;;;;13.05;7.35;;;;;;;;;;7364561;19;20472;-67
2023/07/02 08:15:49;;;;;;;15.48;8.10;;;;;;;;;;7365818;19;20604;-67
2023/07/02 08:18:15;;;;;;;18.00;7.78;;;;;;;;;;7386350;19;20005;-69
2023/07/02 08:20:40;;;;;;;13.50;7.20;;;;;;;;;;7366162;19;20011;-68
2023/07/02 08:23:06;;;;;;;15.00;7.82;;;;;;;;;;7367186;19;20657;-68
2023/07/02 08:25:31;;;;;;;14.38;7.75;;;;;;;;;;7369196;19;20013;-68
2023/07/02 08:27:57;;;;;;;13.95;7.78;;;;;;;;;;7365267;19;20542;-67
2023/07/02 08:30:22;;;;;;;15.43;7.53;;;;;;;;;;7388063;19;20007;-68
2023/07/02 08:32:47;;;;;;;15.77;7.72;;;;;;;;;;7366741;19;20017;-67
2023/07/02 08:35:13;;;;;;;15.73;8.35;;;;;;;;;;7367844;19;20548;-67
2023/07/02 08:37:38;;;;;;;15.73;8.13;;;;;;;;;;7365606;19;20500;-67
2023/07/02 08:40:04;;;;;;;16.75;9.20;;;;;;;;;;7366033;19;20010;-67
2023/07/02 08:42:33;;;;;;;13.27;7.80;;;;;;;;;;7389533;19;20298;-67
2023/07/02 08:44:59;;;;;;;15.48;8.02;;;;;;;;;;7369536;19;20345;-67
2023/07/02 08:47:24;;;;;;;14.70;7.63;;;;;;;;;;7365162;19;20034;-67
2023/07/02 08:49:50;;;;;;;16.55;8.30;;;;;;;;;;7365038;19;20521;-66
2023/07/02 08:52:16;;;;;;;12.20;7.35;;;;;;;;;;7365584;19;20010;-69
2023/07/02 08:54:42;;;;;;;14.27;7.63;;;;;;;;;;7365109;19;20037;-69
2023/07/02 08:57:09;;;;;;;16.95;7.30;;;;;;;;;;7383445;19;20010;-68
2023/07/02 08:59:36;;;;;;;13.85;7.30;;;;;;;;;;7366207;19;20066;-68
2023/07/02 09:02:01;;;;;;;17.92;6.53;;;;;;;;;;7367620;19;20039;-68
2023/07/02 09:04:28;;;;;;;14.65;7.72;;;;;;;;;;7366368;19;20015;-68
2023/07/02 09:07:09;;;;;;;15.82;7.93;;;;;;;;;;7365983;19;20006;-67
2023/07/02 09:09:48;;;;;;;17.50;8.27;;;;;;;;;;7387214;19;20011;-67
2023/07/02 09:12:26;;;;;;;16.83;8.10;;;;;;;;;;7367554;19;20007;-67
2023/07/02 09:15:00;;;;;;;13.68;7.53;;;;;;;;;;7367314;19;20008;-67
2023/07/02 09:17:43;;;;;;;15.13;7.35;;;;;;;;;;7365163;19;20094;-68
2023/07/02 09:20:09;;;;;;;14.52;7.60;;;;;;;;;;7361779;19;20032;-68
2023/07/02 09:22:35;;;;;;;13.88;6.65;;;;;;;;;;7358094;19;20014;-68
2023/07/02 09:25:01;;;;;;;13.80;6.95;;;;;;;;;;7365017;19;20454;-66
2023/07/02 09:27:38;;;;;;;11.48;6.55;;;;;;;;;;7383398;19;20017;-66
2023/07/02 09:30:15;;;;;;;11.70;6.47;;;;;;;;;;7362007;19;20013;-67
2023/07/02 09:32:44;;;;;;;12.57;6.28;;;;;;;;;;7361889;19;20007;-69
2023/07/02 09:35:10;;;;;;;12.20;6.72;;;;;;;;;;7361188;19;20019;-67
2023/07/02 09:37:36;;;;;;;15.18;7.40;;;;;;;;;;7360079;19;20014;-68
2023/07/02 09:40:01;;;;;;;13.80;6.88;;;;;;;;;;7364073;19;20015;-68
2023/07/02 09:42:28;;;;;;;14.85;7.63;;;;;;;;;;7385245;19;20006;-68
2023/07/02 09:44:55;;;;;;;14.60;7.80;;;;;;;;;;7363067;19;20325;-68
2023/07/02 09:47:21;;;;;;;16.15;7.22;;;;;;;;;;7360522;19;21365;-67
2023/07/02 09:50:02;;;;;;;14.23;7.60;;;;;;;;;;7363377;19;20015;-69
2023/07/02 09:52:28;;;;;;;16.08;7.97;;;;;;;;;;7365433;19;20492;-68
2023/07/02 09:54:53;;;;;;;16.35;7.88;;;;;;;;;;7362574;19;20002;-68
2023/07/02 09:57:19;;;;;;;17.02;7.32;;;;;;;;;;7382714;19;20452;-68
2023/07/02 09:59:44;;;;;;;15.02;6.93;;;;;;;;;;7363006;19;20019;-67
2023/07/02 10:02:10;;;;;;;14.43;7.53;;;;;;;;;;7363443;19;20006;-68
2023/07/02 10:04:42;;;;;;;12.32;6.63;;;;;;;;;;7363629;19;20031;-68
2023/07/02 10:07:08;;;;;;;15.30;8.15;;;;;;;;;;7363168;19;20705;-68
2023/07/02 10:09:42;;;;;;;17.48;8.48;;;;;;;;;;7394208;19;20036;-70
2023/07/02 10:12:28;;;;;;;16.73;8.10;;;;;;;;;;7373814;19;20327;-68
2023/07/02 10:14:55;;;;;;;15.48;8.15;;;;;;;;;;7371074;19;20003;-68
2023/07/02 10:17:30;;;;;;;17.17;8.05;;;;;;;;;;7369455;19;20505;-68
2023/07/02 10:19:58;;;;;;;16.17;8.05;;;;;;;;;;7369982;19;20014;-67
2023/07/02 10:22:24;;;;;;;15.02;7.72;;;;;;;;;;7372365;19;20015;-67
2023/07/02 10:24:54;;;;;;;15.85;7.68;;;;;;;;;;7372075;19;20022;-68
2023/07/02 10:27:20;;;;;;;15.57;7.75;;;;;;;;;;7391637;19;20012;-67
2023/07/02 10:29:49;;;;;;;13.02;6.95;;;;;;;;;;7369185;19;20007;-68
2023/07/02 10:32:26;;;;;;;13.52;7.03;;;;;;;;;;7370225;19;20018;-68
2023/07/02 10:34:51;;;;;;;14.15;7.05;;;;;;;;;;7359802;19;20008;-69
2023/07/02 10:37:17;;;;;;;13.23;7.40;;;;;;;;;;7365226;19;20078;-68
2023/07/02 10:39:42;;;;;;;15.70;7.80;;;;;;;;;;7368325;19;20660;-67
2023/07/02 10:42:09;;;;;;;14.20;7.43;;;;;;;;;;7389617;19;20013;-68
2023/07/02 10:44:46;;;;;;;16.23;7.93;;;;;;;;;;7367463;19;20002;-69
2023/07/02 10:47:11;;;;;;;15.25;8.13;;;;;;;;;;7367164;19;20689;-70
2023/07/02 10:49:36;;;;;;;13.20;7.80;;;;;;;;;;7366426;19;20014;-68
2023/07/02 10:52:03;;;;;;;15.45;8.18;;;;;;;;;;7370508;19;20014;-67
2023/07/02 10:54:43;;;;;;;14.38;7.43;;;;;;;;;;7391041;19;20070;-66
2023/07/02 10:57:09;;;;;;;14.30;7.75;;;;;;;;;;7367552;19;20011;-67
2023/07/02 10:59:35;;;;;;;22.55;11.15;;;;;;;;;;7369491;19;20018;-69
2023/07/02 11:02:03;;;;;;;13.45;8.38;;;;;;;;;;7371139;19;20014;-67
2023/07/02 11:04:29;;;;;;;12.57;7.57;;;;;;;;;;7370170;19;20040;-67
2023/07/02 11:06:55;;;;;;;16.65;9.13;;;;;;;;;;7371051;19;19999;-67
2023/07/02 11:09:20;;;;;;;17.33;9.40;;;;;;;;;;7392251;19;20359;-67
2023/07/02 11:11:59;;;;;;;14.57;8.07;;;;;;;;;;7372326;19;20014;-67
2023/07/02 11:14:28;;;;;;;15.75;8.40;;;;;;;;;;7375551;19;20039;-67
2023/07/02 11:16:55;;;;;;;14.20;8.05;;;;;;;;;;7371152;19;20018;-67
2023/07/02 11:19:20;;;;;;;17.90;9.20;;;;;;;;;;7369967;19;20101;-68
2023/07/02 11:21:57;;;;;;;21.52;9.75;;;;;;;;;;7377125;19;20015;-68
2023/07/02 11:24:31;;;;;;;16.90;8.63;;;;;;;;;;7394754;19;20298;-68
2023/07/02 11:26:57;;;;;;;17.88;8.73;;;;;;;;;;7370068;19;20007;-67
2023/07/02 11:29:23;;;;;;;17.10;8.10;;;;;;;;;;7369117;19;20022;-66
2023/07/02 11:31:48;;;;;;;16.85;8.57;;;;;;;;;;7370275;19;20400;-68
2023/07/02 11:34:18;;;;;;;16.02;8.95;;;;;;;;;;7370516;19;20573;-68
2023/07/02 11:36:44;;;;;;;16.58;9.40;;;;;;;;;;7368494;19;20013;-66
2023/07/02 11:39:10;;;;;;;18.80;9.77;;;;;;;;;;7389133;19;20065;-68
2023/07/02 11:41:38;;;;;;;18.15;8.32;;;;;;;;;;7369623;19;20399;-67
2023/07/02 11:44:04;;;;;;;16.23;8.43;;;;;;;;;;7369794;19;20531;-67
2023/07/02 11:46:29;;;;;;;21.35;12.02;;;;;;;;;;7369065;19;20006;-67
2023/07/02 11:48:54;;;;;;;20.90;11.73;;;;;;;;;;7367625;19;20011;-67
2023/07/02 11:51:21;;;;;;;17.73;9.20;;;;;;;;;;7389782;19;20426;-68
2023/07/02 11:53:47;;;;;;;19.70;9.45;;;;;;;;;;7368616;19;20011;-68
2023/07/02 11:56:13;;;;;;;20.27;8.85;;;;;;;;;;7368305;19;20050;-67
2023/07/02 11:58:39;;;;;;;15.85;8.48;;;;;;;;;;7367016;19;20040;-67
2023/07/02 12:01:04;;;;;;;16.02;9.20;;;;;;;;;;7367957;19;20435;-67
2023/07/02 12:03:30;;;;;;;16.77;8.63;;;;;;;;;;7390786;19;20093;-67
2023/07/02 12:05:56;;;;;;;18.88;9.23;;;;;;;;;;7368507;19;20006;-67
2023/07/02 12:08:21;;;;;;;18.77;8.82;;;;;;;;;;7366366;19;20496;-67
2023/07/02 12:10:47;;;;;;;16.08;8.68;;;;;;;;;;7368068;19;20007;-67
2023/07/02 12:13:12;;;;;;;15.75;9.60;;;;;;;;;;7368268;19;20038;-67
2023/07/02 12:15:37;;;;;;;18.45;8.90;;;;;;;;;;7391913;19;20430;-67
2023/07/02 12:18:03;;;;;;;15.32;8.13;;;;;;;;;;7366278;19;20044;-67
2023/07/02 12:20:28;;;;;;;16.90;8.07;;;;;;;;;;7365370;19;20011;-67
2023/07/02 12:22:53;;;;;;;15.85;8.00;;;;;;;;;;7367794;19;20132;-67
2023/07/02 12:25:19;;;;;;;15.82;8.55;;;;;;;;;;7369283;19;20126;-68
2023/07/02 12:27:44;;;;;;;21.58;9.00;;;;;;;;;;7365432;19;20010;-68
2023/07/02 12:30:10;;;;;;;16.25;9.00;;;;;;;;;;7386104;19;20390;-68
2023/07/02 12:32:35;;;;;;;14.73;7.50;;;;;;;;;;7368406;19;20595;-67
2023/07/02 12:35:01;;;;;;;14.95;8.02;;;;;;;;;;7368196;19;20006;-69
2023/07/02 12:37:26;;;;;;;18.98;8.45;;;;;;;;;;7367235;19;20014;-68
2023/07/02 12:39:52;;;;;;;15.45;7.85;;;;;;;;;;7358859;19;20027;-69
2023/07/02 12:42:17;;;;;;;18.65;8.15;;;;;;;;;;7379639;19;20052;-69
2023/07/02 12:44:42;;;;;;;18.10;8.80;;;;;;;;;;7361989;19;20486;-69
2023/07/02 12:47:08;;;;;;;14.75;8.50;;;;;;;;;;7358517;19;20042;-69
2023/07/02 12:49:34;;;;;;;17.42;8.45;;;;;;;;;;7358318;19;20014;-70
2023/07/02 12:51:59;;;;;;;16.40;8.63;;;;;;;;;;7361502;19;20015;-72
2023/07/02 12:54:25;;;;;;;18.75;10.05;;;;;;;;;;7382616;19;20503;-68
2023/07/02 12:56:50;;;;;;;16.20;8.77;;;;;;;;;;7357749;19;20098;-70
2023/07/02 12:59:16;;;;;;;16.25;8.65;;;;;;;;;;7356882;19;20007;-69
2023/07/02 13:01:41;;;;;;;16.30;8.45;;;;;;;;;;7363525;19;20509;-69
2023/07/02 13:04:06;;;;;;;16.45;8.40;;;;;;;;;;7363445;19;20400;-70
2023/07/02 13:06:39;;;;;;;16.30;8.50;;;;;;;;;;7383824;19;20010;-69
2023/07/02 13:09:05;;;;;;;16.23;8.38;;;;;;;;;;7364081;19;20003;-69
2023/07/02 13:11:31;;;;;;;17.45;8.65;;;;;;;;;;7363137;19;20682;-69
2023/07/02 13:13:56;;;;;;;18.48;8.70;;;;;;;;;;7364416;19;20018;-69
2023/07/02 13:16:21;;;;;;;17.73;8.80;;;;;;;;;;7364760;19;20002;-69
2023/07/02 13:18:47;;;;;;;16.92;9.18;;;;;;;;;;7363501;19;19999;-68
2023/07/02 13:21:12;;;;;;;15.68;8.63;;;;;;;;;;7385924;19;20017;-70
2023/07/02 13:23:37;;;;;;;17.38;8.27;;;;;;;;;;7363180;19;20027;-68
2023/07/02 13:26:03;;;;;;;17.02;8.10;;;;;;;;;;7362621;19;20710;-68
2023/07/02 13:28:28;;;;;;;16.65;8.32;;;;;;;;;;7363144;19;20054;-68
2023/07/02 13:30:54;;;;;;;14.82;8.25;;;;;;;;;;7363531;19;20015;-68
2023/07/02 13:33:19;;;;;;;14.02;8.52;;;;;;;;;;7384702;19;20027;-69
2023/07/02 13:35:45;;;;;;;16.73;8.53;;;;;;;;;;7363903;19;20042;-68
2023/07/02 13:38:10;;;;;;;13.52;8.38;;;;;;;;;;7364100;19;20248;-69
2023/07/02 13:40:36;;;;;;;17.90;8.25;;;;;;;;;;7362982;19;20011;-68
2023/07/02 13:43:03;;;;;;;14.75;8.45;;;;;;;;;;7364709;19;20011;-69
2023/07/02 13:45:28;;;;;;;18.27;8.20;;;;;;;;;;7392325;19;20002;-69
2023/07/02 13:47:53;;;;;;;15.45;8.25;;;;;;;;;;7368735;19;20473;-69
2023/07/02 13:50:19;;;;;;;16.70;8.33;;;;;;;;;;7368548;19;20011;-70
2023/07/02 13:52:46;;;;;;;16.50;8.38;;;;;;;;;;7371404;19;20773;-70
2023/07/02 13:55:11;;;;;;;17.40;9.00;;;;;;;;;;7365753;19;20480;-70
2023/07/02 13:57:37;;;;;;;18.67;9.57;;;;;;;;;;7390267;19;20134;-69
2023/07/02 14:00:04;;;;;;;16.25;8.60;;;;;;;;;;7367382;19;20488;-71
2023/07/02 14:02:31;;;;;;;16.85;9.18;;;;;;;;;;7364824;19;19999;-68
2023/07/02 14:04:59;;;;;;;16.73;9.63;;;;;;;;;;7366108;19;20006;-70
2023/07/02 14:07:25;;;;;;;15.57;8.82;;;;;;;;;;7367405;19;20010;-70
2023/07/02 14:09:50;;;;;;;20.27;9.07;;;;;;;;;;7365020;19;20322;-70
2023/07/02 14:12:15;;;;;;;18.70;8.88;;;;;;;;;;7389747;19;19998;-69
2023/07/02 14:14:41;;;;;;;18.73;9.18;;;;;;;;;;7366147;19;20039;-70
2023/07/02 14:17:06;;;;;;;18.27;9.10;;;;;;;;;;7367522;19;20238;-70
2023/07/02 14:19:32;;;;;;;16.05;8.32;;;;;;;;;;7369058;19;20121;-69
2023/07/02 14:21:58;;;;;;;15.32;8.93;;;;;;;;;;7369937;19;20036;-70
2023/07/02 14:24:23;;;;;;;15.00;8.70;;;;;;;;;;7388923;19;20015;-70
2023/07/02 14:26:48;;;;;;;19.85;9.30;;;;;;;;;;7366631;19;20042;-70
2023/07/02 14:29:14;;;;;;;14.15;8.65;;;;;;;;;;7366826;19;20015;-70